createdAt,value
2023-02-27T18:06:09.703Z,100577.53
2023-02-27T18:08:36.918Z,100567.50
2023-02-27T18:11:04.275Z,100578.41
2023-02-27T18:13:31.403Z,100578.69
2023-02-27T18:15:58.627Z,100581.72
2023-02-27T18:18:25.656Z,100583.13
2023-02-27T18:21:04.399Z,100581.97
2023-02-27T18:23:31.976Z,100561.16
2023-02-27T18:25:59.859Z,100566.72
2023-02-27T18:28:27.482Z,100570.50
2023-02-27T18:30:54.564Z,100569.88
2023-02-27T18:33:23.197Z,100508.66
2023-02-27T18:35:50.652Z,100548.19
2023-02-27T18:38:17.708Z,100565.69
2023-02-27T18:40:44.795Z,100547.41
2023-02-27T18:43:12.379Z,100552.59
2023-02-27T18:45:39.968Z,100556.91
2023-02-27T18:48:07.360Z,100540.31
2023-02-27T18:50:34.664Z,100536.00
2023-02-27T18:53:01.754Z,100556.03
2023-02-27T18:55:28.761Z,100552.59
2023-02-27T18:57:55.757Z,100563.75
2023-02-27T19:00:24.362Z,100570.38
2023-02-27T19:02:51.534Z,100563.50
2023-02-27T19:05:19.020Z,100560.22
2023-02-27T19:07:46.270Z,100579.78
2023-02-27T19:10:15.202Z,100580.66
2023-02-27T19:12:42.887Z,100513.72
2023-02-27T19:15:11.151Z,100579.78
2023-02-27T19:17:38.533Z,100574.34
2023-02-27T19:20:07.001Z,100594.78
2023-02-27T19:22:34.745Z,100584.34
2023-02-27T19:25:01.868Z,100549.25
2023-02-27T19:27:30.162Z,100587.66
2023-02-27T19:29:57.184Z,100590.72
2023-02-27T19:32:24.322Z,100568.75
2023-02-27T19:34:51.455Z,100584.25
2023-02-27T19:37:18.498Z,100579.44
2023-02-27T19:39:46.592Z,100572.56
2023-02-27T19:42:13.649Z,100567.38
2023-02-27T19:44:41.351Z,100563.84
2023-02-27T19:47:08.417Z,100565.72
2023-02-27T19:49:35.510Z,100558.38
2023-02-27T19:52:03.110Z,100562.94
2023-02-27T19:54:30.734Z,100564.34
2023-02-27T19:56:57.728Z,100558.47
2023-02-27T19:59:25.019Z,100556.22
2023-02-27T20:01:52.599Z,100556.84
2023-02-27T20:04:20.158Z,100548.75
2023-02-27T20:06:49.670Z,100553.56
2023-02-27T20:09:20.486Z,100550.38
2023-02-27T20:11:51.565Z,100555.47
2023-02-27T20:14:18.781Z,100553.31
2023-02-27T20:16:46.367Z,100562.69
2023-02-27T20:19:18.290Z,100559.50
2023-02-27T20:21:46.490Z,100576.03
2023-02-27T20:24:14.865Z,100582.09
2023-02-27T20:26:53.608Z,100589.09
2023-02-27T20:29:23.915Z,100584.78
2023-02-27T20:31:52.841Z,100575.91
2023-02-27T20:34:22.777Z,100581.72
2023-02-27T20:36:50.755Z,100578.69
2023-02-27T20:39:19.340Z,100581.22
2023-02-27T20:41:47.305Z,100585.16
2023-02-27T20:44:14.487Z,100589.22
2023-02-27T20:46:43.825Z,100580.31
2023-02-27T20:49:14.599Z,100586.94
2023-02-27T20:51:41.957Z,100588.47
2023-02-27T20:54:13.663Z,100549.88
2023-02-27T20:56:43.231Z,100561.19
2023-02-27T20:59:14.470Z,100579.69
2023-02-27T21:01:42.708Z,100580.81
2023-02-27T21:04:09.936Z,100587.56
2023-02-27T21:06:37.052Z,100568.91
2023-02-27T21:09:06.404Z,100589.56
2023-02-27T21:11:33.765Z,100578.16
2023-02-27T21:14:09.317Z,100591.22
2023-02-27T21:16:37.208Z,100573.97
2023-02-27T21:19:04.489Z,100585.88
2023-02-27T21:21:33.912Z,100587.81
2023-02-27T21:24:01.232Z,100575.59
2023-02-27T21:26:35.619Z,100581.81
2023-02-27T21:29:06.269Z,100579.78
2023-02-27T21:31:34.670Z,100576.84
2023-02-27T21:34:03.641Z,100572.78
2023-02-27T21:36:34.151Z,100553.38
2023-02-27T21:39:14.781Z,100557.09
2023-02-27T21:41:42.757Z,100571.03
2023-02-27T21:44:12.959Z,100555.16
2023-02-27T21:46:40.149Z,100572.31
2023-02-27T21:49:07.165Z,100567.22
2023-02-27T21:51:40.407Z,100566.19
2023-02-27T21:54:10.788Z,100556.56
2023-02-27T21:56:38.664Z,100551.97
2023-02-27T21:59:06.371Z,100533.94
2023-02-27T22:01:33.902Z,100554.75
2023-02-27T22:04:02.113Z,100553.22
2023-02-27T22:06:32.364Z,100563.00
2023-02-27T22:09:01.637Z,100561.84
2023-02-27T22:11:30.082Z,100559.31
2023-02-27T22:13:57.443Z,100531.50
2023-02-27T22:16:24.898Z,100541.03
2023-02-27T22:18:52.016Z,100556.13
2023-02-27T22:21:22.847Z,100572.22
2023-02-27T22:23:50.455Z,100550.41
2023-02-27T22:26:20.657Z,100553.94
2023-02-27T22:28:47.829Z,100562.97
2023-02-27T22:31:33.714Z,100497.25
2023-02-27T22:34:21.198Z,100565.53
2023-02-27T22:36:52.452Z,100502.19
2023-02-27T22:39:20.282Z,100563.59
2023-02-27T22:41:47.326Z,100571.72
2023-02-27T22:44:16.250Z,100564.50
2023-02-27T22:46:48.386Z,100565.66
2023-02-27T22:49:21.364Z,100558.94
2023-02-27T22:51:50.987Z,100552.03
2023-02-27T22:54:20.765Z,100559.00
2023-02-27T22:56:50.488Z,100561.78
2023-02-27T22:59:17.610Z,100559.00
2023-02-27T23:01:44.671Z,100528.06
2023-02-27T23:04:11.973Z,100555.06
2023-02-27T23:06:40.728Z,100534.13
2023-02-27T23:09:11.030Z,100532.84
2023-02-27T23:11:38.172Z,100549.34
2023-02-27T23:14:05.468Z,100532.56
2023-02-27T23:16:32.702Z,100550.44
2023-02-27T23:19:00.157Z,100490.00
2023-02-27T23:21:34.402Z,100485.19
2023-02-27T23:24:06.745Z,100535.56
2023-02-27T23:26:42.725Z,100542.59
2023-02-27T23:29:10.365Z,100517.19
2023-02-27T23:31:38.177Z,100518.06
2023-02-27T23:34:06.143Z,100519.50
2023-02-27T23:36:38.028Z,100525.09
2023-02-27T23:39:05.948Z,100525.66
2023-02-27T23:41:33.908Z,100519.09
2023-02-27T23:44:19.713Z,100496.63
2023-02-27T23:46:46.706Z,100523.06
2023-02-27T23:49:13.734Z,100482.63
2023-02-27T23:51:40.743Z,100513.09
2023-02-27T23:54:07.762Z,100454.19
2023-02-27T23:56:34.733Z,100498.41
2023-02-27T23:59:05.158Z,100486.53
